Time;durP1;ratioP1;P1;durP2;ratioP2;P2;SDS_P1;SDS_P2;PMS_P1;PMS_P2;Temp;Humidity;BMP_temperature;BMP_pressure;BME280_temperature;BME280_humidity;BME280_pressure;Samples;Min_cycle;Max_cycle;Signal;HPM_P1;HPM_P2
2022/08/14 00:00:49;;;;;;;2.80;2.15;;;27.70;39.30;;;;;;5031638;28;20061;-57
2022/08/14 00:03:19;;;;;;;2.75;2.05;;;27.70;39.40;;;;;;5028164;28;20108;-60
2022/08/14 00:05:45;;;;;;;2.67;2.40;;;27.70;39.50;;;;;;5030528;28;20053;-61
2022/08/14 00:08:11;;;;;;;2.83;2.33;;;27.70;39.50;;;;;;5029280;28;20361;-61
2022/08/14 00:10:37;;;;;;;3.53;2.47;;;27.70;39.50;;;;;;5030027;28;20039;-61
2022/08/14 00:13:03;;;;;;;2.17;1.98;;;27.70;39.60;;;;;;5028244;28;20057;-61
2022/08/14 00:15:35;;;;;;;3.60;2.20;;;27.70;39.60;;;;;;5029866;28;20056;-60
2022/08/14 00:18:01;;;;;;;2.67;2.47;;;27.70;39.70;;;;;;5029697;28;20112;-61
2022/08/14 00:20:31;;;;;;;2.22;2.00;;;27.60;39.60;;;;;;5030469;28;20059;-61
2022/08/14 00:22:58;;;;;;;2.58;2.38;;;27.60;39.70;;;;;;5032042;28;20080;-61
2022/08/14 00:25:25;;;;;;;2.40;1.90;;;27.70;39.80;;;;;;5027232;28;20044;-60
2022/08/14 00:27:50;;;;;;;2.40;2.20;;;27.60;39.70;;;;;;5027084;28;20021;-60
2022/08/14 00:30:16;;;;;;;2.45;2.25;;;27.60;39.80;;;;;;5029846;28;20033;-62
2022/08/14 00:32:43;;;;;;;3.03;2.20;;;27.70;39.90;;;;;;5029936;28;20041;-60
2022/08/14 00:35:10;;;;;;;2.53;2.30;;;27.70;39.90;;;;;;5027809;28;20025;-60
2022/08/14 00:37:41;;;;;;;2.25;2.05;;;27.60;40.00;;;;;;5029650;28;20125;-60
2022/08/14 00:40:10;;;;;;;2.40;2.17;;;27.60;40.00;;;;;;5029013;28;20044;-58
2022/08/14 00:42:35;;;;;;;2.60;2.33;;;27.70;40.10;;;;;;5030513;28;20025;-61
2022/08/14 00:45:02;;;;;;;4.22;2.50;;;27.60;40.10;;;;;;5029047;28;20028;-60
2022/08/14 00:47:27;;;;;;;3.17;2.80;;;27.60;40.10;;;;;;5027816;28;20353;-59
2022/08/14 00:49:57;;;;;;;2.17;1.98;;;27.60;40.20;;;;;;5028941;28;20038;-61
2022/08/14 00:52:25;;;;;;;3.15;2.22;;;27.60;40.20;;;;;;5030067;28;20029;-58
2022/08/14 00:54:55;;;;;;;2.78;2.28;;;27.60;40.30;;;;;;5029763;28;20357;-61
2022/08/14 00:57:24;;;;;;;2.40;2.20;;;27.60;40.40;;;;;;5028822;28;20060;-60
2022/08/14 00:59:50;;;;;;;3.63;2.47;;;27.60;40.40;;;;;;5029201;28;20034;-59
2022/08/14 01:02:19;;;;;;;2.80;2.50;;;27.60;40.50;;;;;;5029561;28;20087;-59
2022/08/14 01:04:46;;;;;;;2.33;2.10;;;27.60;40.50;;;;;;5027015;28;20441;-59
2022/08/14 01:07:18;;;;;;;2.47;2.28;;;27.60;40.50;;;;;;5027746;28;20083;-60
2022/08/14 01:09:53;;;;;;;2.50;2.30;;;27.60;40.60;;;;;;5029439;28;20045;-58
2022/08/14 01:12:21;;;;;;;3.30;2.50;;;27.60;40.60;;;;;;5027400;28;20066;-56
2022/08/14 01:14:53;;;;;;;2.80;2.60;;;27.60;40.70;;;;;;5027522;28;20787;-60
2022/08/14 01:17:23;;;;;;;2.80;2.50;;;27.50;40.60;;;;;;5029400;28;20112;-59
2022/08/14 01:22:34;;;;;;;2.42;2.22;;;27.60;40.80;;;;;;5025597;28;20076;-60
2022/08/14 01:25:02;;;;;;;2.53;2.33;;;27.60;40.80;;;;;;5027565;28;20025;-59
2022/08/14 01:27:29;;;;;;;2.83;2.50;;;27.50;40.80;;;;;;5026599;28;20022;-60
2022/08/14 01:29:56;;;;;;;3.05;2.70;;;27.60;40.90;;;;;;5028075;28;20034;-61
2022/08/14 01:32:23;;;;;;;2.75;2.50;;;27.50;40.90;;;;;;5027551;28;20037;-57
2022/08/14 01:34:53;;;;;;;4.00;2.92;;;27.50;40.90;;;;;;5027437;28;20113;-60
2022/08/14 01:37:24;;;;;;;3.83;2.80;;;27.60;41.00;;;;;;5025714;28;20440;-58
2022/08/14 01:39:51;;;;;;;2.55;2.35;;;27.50;41.00;;;;;;5028768;28;20112;-58
2022/08/14 01:42:17;;;;;;;3.10;2.70;;;27.60;41.10;;;;;;5028756;28;20035;-59
2022/08/14 01:44:50;;;;;;;3.55;2.60;;;27.50;41.00;;;;;;5027528;28;20039;-58
2022/08/14 01:47:17;;;;;;;4.03;2.63;;;27.50;41.10;;;;;;5028337;28;20457;-62
2022/08/14 01:49:44;;;;;;;2.80;2.60;;;27.60;41.20;;;;;;5029481;28;20041;-60
2022/08/14 01:52:11;;;;;;;3.20;2.40;;;27.50;41.20;;;;;;5029144;28;20033;-60
2022/08/14 01:54:38;;;;;;;3.58;2.70;;;27.50;41.20;;;;;;5026076;28;20033;-59
2022/08/14 01:57:10;;;;;;;2.72;2.50;;;27.50;41.20;;;;;;5027544;28;20037;-60
2022/08/14 01:59:39;;;;;;;3.75;2.78;;;27.50;41.30;;;;;;5025133;28;20055;-60
2022/08/14 02:02:14;;;;;;;3.20;2.67;;;27.50;41.30;;;;;;5026286;28;20433;-60
2022/08/14 02:04:40;;;;;;;3.00;2.67;;;27.50;41.40;;;;;;5027063;28;20088;-60
2022/08/14 02:07:10;;;;;;;3.00;2.70;;;27.50;41.40;;;;;;5028292;28;20461;-59
2022/08/14 02:09:37;;;;;;;2.85;2.60;;;27.50;41.40;;;;;;5025053;28;20491;-60
2022/08/14 02:12:06;;;;;;;3.72;3.03;;;27.50;41.40;;;;;;5028648;28;20041;-60
2022/08/14 02:14:32;;;;;;;2.65;2.45;;;27.50;41.50;;;;;;5029347;28;20026;-58
2022/08/14 02:16:58;;;;;;;2.63;2.42;;;27.50;41.50;;;;;;5028055;28;20037;-56
2022/08/14 02:19:29;;;;;;;2.53;2.33;;;27.50;41.50;;;;;;5026942;28;20166;-55
2022/08/14 02:21:57;;;;;;;3.70;2.67;;;27.50;41.60;;;;;;5028688;28;20033;-62
2022/08/14 02:24:26;;;;;;;3.22;2.92;;;27.50;41.60;;;;;;5027734;28;20037;-60
2022/08/14 02:26:52;;;;;;;3.03;2.67;;;27.50;41.60;;;;;;5026341;28;20044;-60
2022/08/14 02:29:22;;;;;;;2.88;2.55;;;27.40;41.60;;;;;;5025863;28;20033;-59
2022/08/14 02:31:55;;;;;;;3.38;2.60;;;27.50;41.70;;;;;;5028288;28;20033;-59
2022/08/14 02:34:27;;;;;;;2.72;2.47;;;27.50;41.70;;;;;;5028646;28;20029;-60
2022/08/14 02:36:58;;;;;;;2.90;2.58;;;27.40;41.70;;;;;;5027760;28;20053;-58
2022/08/14 02:39:25;;;;;;;2.45;2.25;;;27.40;41.80;;;;;;5024676;28;20658;-57
2022/08/14 02:41:52;;;;;;;3.10;2.80;;;27.40;41.80;;;;;;5027021;28;20079;-60
2022/08/14 02:44:22;;;;;;;3.30;3.00;;;27.40;41.80;;;;;;5026847;28;20117;-61
2022/08/14 02:46:50;;;;;;;2.88;2.53;;;27.50;41.90;;;;;;5027735;28;20049;-61
2022/08/14 02:49:16;;;;;;;2.95;2.60;;;27.40;41.90;;;;;;5024933;28;20030;-59
2022/08/14 02:51:48;;;;;;;3.33;2.50;;;27.50;42.00;;;;;;5026963;28;20048;-58
2022/08/14 02:54:14;;;;;;;3.38;2.72;;;27.40;41.90;;;;;;5027760;28;20036;-61
2022/08/14 02:56:41;;;;;;;4.50;2.80;;;27.40;41.90;;;;;;5027295;28;20029;-59
2022/08/14 02:59:09;;;;;;;2.80;2.50;;;27.40;42.00;;;;;;5025422;28;20095;-60
2022/08/14 03:01:35;;;;;;;4.22;3.22;;;27.40;42.00;;;;;;5027749;28;20038;-56
2022/08/14 03:04:04;;;;;;;3.10;2.80;;;27.40;42.00;;;;;;5019016;28;20056;-57
2022/08/14 03:06:31;;;;;;;3.88;3.00;;;27.40;42.00;;;;;;5025483;28;20412;-59
2022/08/14 03:08:58;;;;;;;3.35;2.90;;;27.40;42.00;;;;;;5026201;28;20179;-59
2022/08/14 03:11:25;;;;;;;2.97;2.72;;;27.40;42.10;;;;;;5027910;28;20029;-60
2022/08/14 03:13:51;;;;;;;3.38;3.08;;;27.40;42.10;;;;;;5025440;28;20475;-59
2022/08/14 03:16:20;;;;;;;3.22;2.92;;;27.40;42.10;;;;;;5028242;28;21269;-60
2022/08/14 03:18:48;;;;;;;2.97;2.67;;;27.40;42.20;;;;;;5025700;28;20161;-57
2022/08/14 03:21:17;;;;;;;3.00;2.70;;;27.40;42.20;;;;;;5029607;28;20033;-59
2022/08/14 03:23:45;;;;;;;3.03;2.72;;;27.40;42.20;;;;;;5025703;28;20045;-60
2022/08/14 03:26:14;;;;;;;3.80;3.08;;;27.40;42.20;;;;;;5027861;28;20037;-61
2022/08/14 03:28:42;;;;;;;3.00;2.70;;;27.40;42.30;;;;;;5026534;28;20025;-57
2022/08/14 03:31:10;;;;;;;3.65;2.92;;;27.40;42.30;;;;;;5025572;28;20444;-61
2022/08/14 03:33:39;;;;;;;3.33;3.03;;;27.40;42.30;;;;;;5027286;28;20029;-59
2022/08/14 03:36:16;;;;;;;3.05;2.70;;;27.30;42.30;;;;;;5026143;28;20033;-60
2022/08/14 03:38:43;;;;;;;2.92;2.63;;;27.40;42.30;;;;;;5025859;28;20017;-59
2022/08/14 03:41:15;;;;;;;3.30;3.00;;;27.40;42.40;;;;;;5027430;28;20033;-58
2022/08/14 03:43:57;;;;;;;3.10;2.80;;;27.30;42.30;;;;;;5025747;28;20037;-60
2022/08/14 03:46:26;;;;;;;3.85;3.20;;;27.30;42.30;;;;;;5023841;28;20041;-61
2022/08/14 03:48:53;;;;;;;5.05;3.60;;;27.30;42.40;;;;;;5025871;28;20026;-58
2022/08/14 03:51:21;;;;;;;3.88;3.42;;;27.30;42.40;;;;;;5024437;28;20124;-59
2022/08/14 03:53:47;;;;;;;4.07;3.67;;;27.30;42.40;;;;;;5028197;28;20292;-61
2022/08/14 03:56:15;;;;;;;4.22;3.63;;;27.30;42.50;;;;;;5026721;28;20029;-59
2022/08/14 03:58:48;;;;;;;4.78;4.28;;;27.30;42.50;;;;;;5026568;28;20048;-61
2022/08/14 04:01:20;;;;;;;3.83;3.42;;;27.30;42.50;;;;;;5026971;28;20022;-63
2022/08/14 04:03:46;;;;;;;4.20;3.78;;;27.30;42.50;;;;;;5025083;28;20041;-61
2022/08/14 04:06:12;;;;;;;3.83;3.45;;;27.30;42.50;;;;;;5024936;28;20187;-60
2022/08/14 04:08:39;;;;;;;4.28;3.88;;;27.30;42.60;;;;;;5022972;28;20128;-62
2022/08/14 04:11:07;;;;;;;4.45;4.05;;;27.30;42.60;;;;;;5027500;28;20021;-60
2022/08/14 04:13:36;;;;;;;4.40;4.00;;;27.30;42.60;;;;;;5027276;28;20110;-58
2022/08/14 04:16:05;;;;;;;4.43;3.65;;;27.30;42.70;;;;;;5026049;28;21839;-59
2022/08/14 04:18:32;;;;;;;3.90;3.50;;;27.30;42.70;;;;;;5020931;28;20033;-60
2022/08/14 04:20:58;;;;;;;4.18;3.78;;;27.30;42.70;;;;;;5027066;28;20033;-60
2022/08/14 04:23:24;;;;;;;4.10;3.70;;;27.30;42.70;;;;;;5017027;28;20109;-57
2022/08/14 04:25:53;;;;;;;4.20;3.47;;;27.30;42.70;;;;;;5027333;28;20098;-59
2022/08/14 04:28:20;;;;;;;4.57;3.70;;;27.30;42.80;;;;;;5029446;28;20037;-54
2022/08/14 04:30:47;;;;;;;4.07;3.40;;;27.30;42.80;;;;;;5027430;28;20022;-60
2022/08/14 04:33:13;;;;;;;4.18;3.50;;;27.20;42.70;;;;;;5027371;28;20033;-59
2022/08/14 04:35:39;;;;;;;3.88;3.58;;;27.30;42.70;;;;;;5027472;28;20032;-59
2022/08/14 04:43:40;;;;;;;4.13;3.72;;;27.20;42.80;;;;;;5030592;28;20124;-56
2022/08/14 04:46:14;;;;;;;4.10;3.10;;;27.30;42.90;;;;;;5027960;28;20709;-57
2022/08/14 04:48:40;;;;;;;3.53;3.22;;;27.20;42.80;;;;;;5026489;28;20036;-59
2022/08/14 04:51:09;;;;;;;3.38;3.08;;;27.20;42.90;;;;;;5030056;28;20087;-60
2022/08/14 04:53:37;;;;;;;3.50;3.20;;;27.20;42.90;;;;;;5029378;28;20030;-59
2022/08/14 04:56:06;;;;;;;3.80;3.20;;;27.20;42.90;;;;;;5031444;28;20424;-61
2022/08/14 04:58:33;;;;;;;4.32;3.30;;;27.20;42.90;;;;;;5028561;28;20049;-61
2022/08/14 05:01:02;;;;;;;4.80;3.50;;;27.20;42.90;;;;;;5029151;28;20029;-56
2022/08/14 05:03:31;;;;;;;4.63;3.30;;;27.20;42.90;;;;;;5028066;28;20018;-59
2022/08/14 05:06:00;;;;;;;3.72;3.30;;;27.20;42.90;;;;;;5029021;28;20519;-59
2022/08/14 05:08:27;;;;;;;3.60;3.08;;;27.20;43.00;;;;;;5029983;28;20025;-60
2022/08/14 05:10:56;;;;;;;3.88;3.30;;;27.20;43.00;;;;;;5027855;28;20408;-59
2022/08/14 05:13:24;;;;;;;3.33;3.03;;;27.20;43.00;;;;;;5030613;28;20035;-55
2022/08/14 05:15:51;;;;;;;3.45;3.10;;;27.20;43.10;;;;;;5025773;28;20460;-60
2022/08/14 05:18:20;;;;;;;4.10;3.28;;;27.20;43.10;;;;;;5026332;28;20065;-58
2022/08/14 05:20:51;;;;;;;3.45;3.15;;;27.20;43.10;;;;;;5030201;28;20034;-57
2022/08/14 05:23:20;;;;;;;4.13;3.25;;;27.20;43.20;;;;;;5028652;28;20037;-61
2022/08/14 05:25:48;;;;;;;4.88;3.35;;;27.20;43.10;;;;;;5028083;28;20037;-59
2022/08/14 05:28:20;;;;;;;4.22;3.38;;;27.20;43.20;;;;;;5028028;28;20033;-59
2022/08/14 05:30:48;;;;;;;4.38;3.28;;;27.20;43.20;;;;;;5028573;28;20441;-60
2022/08/14 05:33:17;;;;;;;4.25;3.50;;;27.20;43.20;;;;;;5025529;28;20030;-62
2022/08/14 05:35:47;;;;;;;3.67;3.15;;;27.20;43.30;;;;;;5029010;28;20033;-59
2022/08/14 05:38:16;;;;;;;3.58;3.28;;;27.20;43.30;;;;;;5026977;28;20033;-60
2022/08/14 05:40:43;;;;;;;3.35;3.00;;;27.20;43.30;;;;;;5027141;28;20029;-58
2022/08/14 05:43:09;;;;;;;4.20;3.55;;;27.20;43.40;;;;;;5028421;28;20059;-61
2022/08/14 05:45:36;;;;;;;3.33;3.03;;;27.20;43.30;;;;;;5029552;28;20061;-60
2022/08/14 05:48:03;;;;;;;3.58;3.28;;;27.20;43.40;;;;;;5026463;28;20042;-60
2022/08/14 05:50:30;;;;;;;3.65;3.35;;;27.20;43.40;;;;;;5029760;28;20416;-58
2022/08/14 05:52:57;;;;;;;4.18;3.20;;;27.20;43.40;;;;;;5029634;28;20436;-63
2022/08/14 05:55:23;;;;;;;3.70;3.35;;;27.20;43.50;;;;;;5028397;28;20025;-61
2022/08/14 05:57:57;;;;;;;3.72;3.42;;;27.20;43.50;;;;;;5029186;28;20326;-64
2022/08/14 06:00:24;;;;;;;;;;;27.20;43.50;;;;;;5028723;28;20030;-61
2022/08/14 06:02:50;;;;;;;3.92;3.40;;;27.20;43.50;;;;;;5029077;28;19923;-59
2022/08/14 06:05:16;;;;;;;3.65;3.28;;;27.10;43.50;;;;;;5028432;28;20041;-61
2022/08/14 06:07:41;;;;;;;3.55;3.25;;;27.20;43.60;;;;;;5027491;28;20099;-61
2022/08/14 06:10:09;;;;;;;3.88;3.00;;;27.10;43.50;;;;;;5029307;28;20040;-59
2022/08/14 06:12:35;;;;;;;3.85;3.45;;;27.10;43.50;;;;;;5025977;28;20026;-59
2022/08/14 06:15:02;;;;;;;3.45;3.15;;;27.10;43.60;;;;;;5025444;28;20025;-61
2022/08/14 06:17:28;;;;;;;3.30;3.00;;;27.20;43.60;;;;;;5026555;28;20025;-60
2022/08/14 06:19:54;;;;;;;3.17;2.88;;;27.20;43.70;;;;;;5026394;28;20087;-58
2022/08/14 06:22:19;;;;;;;3.60;3.13;;;27.10;43.70;;;;;;5028159;28;20029;-60
2022/08/14 06:24:45;;;;;;;3.58;3.28;;;27.20;43.80;;;;;;5025289;28;20029;-60
2022/08/14 06:27:11;;;;;;;5.00;2.97;;;27.20;43.80;;;;;;5028363;28;20033;-60
2022/08/14 06:29:38;;;;;;;4.13;3.30;;;27.20;43.90;;;;;;5026531;28;20824;-60
2022/08/14 06:32:04;;;;;;;4.40;3.90;;;27.10;43.90;;;;;;5025486;28;20029;-58
2022/08/14 06:34:30;;;;;;;4.15;3.75;;;27.20;43.90;;;;;;5025453;28;20021;-60
2022/08/14 06:36:56;;;;;;;3.72;3.40;;;27.20;44.00;;;;;;5028028;28;20084;-61
2022/08/14 06:39:22;;;;;;;5.57;3.60;;;27.10;43.90;;;;;;5017015;28;20053;-61
2022/08/14 06:41:48;;;;;;;3.45;3.15;;;27.20;44.00;;;;;;5021131;28;20029;-61
2022/08/14 06:44:14;;;;;;;4.25;3.85;;;27.10;44.00;;;;;;5025632;28;20034;-62
2022/08/14 06:46:40;;;;;;;3.83;3.40;;;27.10;44.00;;;;;;5023092;28;20053;-60
2022/08/14 06:49:06;;;;;;;5.72;3.40;;;27.10;44.00;;;;;;5023937;28;20026;-61
2022/08/14 06:51:32;;;;;;;4.05;3.45;;;27.10;44.00;;;;;;5026985;28;20026;-61
2022/08/14 06:53:58;;;;;;;4.85;3.40;;;27.10;44.10;;;;;;5026619;28;20040;-62
2022/08/14 06:56:23;;;;;;;6.97;3.45;;;27.20;44.30;;;;;;5026263;28;20045;-61
2022/08/14 06:58:49;;;;;;;5.07;3.65;;;27.10;44.20;;;;;;5028362;28;20033;-61
2022/08/14 07:06:45;;;;;;;4.05;3.65;;;27.10;44.30;;;;;;5016692;28;20061;-59
2022/08/14 07:09:11;;;;;;;4.07;3.60;;;27.10;44.40;;;;;;5015523;28;20049;-59
2022/08/14 07:11:37;;;;;;;4.05;3.65;;;27.10;44.40;;;;;;5015622;28;20057;-59
2022/08/14 07:14:03;;;;;;;4.15;3.75;;;27.20;44.50;;;;;;5021205;28;20030;-63
2022/08/14 07:16:30;;;;;;;3.60;3.30;;;27.10;44.50;;;;;;5023244;28;20326;-59
2022/08/14 07:18:55;;;;;;;4.32;3.85;;;27.20;44.60;;;;;;5032297;28;20029;-59
2022/08/14 07:21:21;;;;;;;4.60;4.20;;;27.10;44.60;;;;;;5027416;28;20348;-60
2022/08/14 07:23:47;;;;;;;4.30;3.80;;;27.20;44.70;;;;;;5014965;28;20033;-60
2022/08/14 07:26:13;;;;;;;4.63;4.15;;;27.20;44.70;;;;;;5015987;28;20075;-60
2022/08/14 07:28:39;;;;;;;5.00;4.15;;;27.10;44.70;;;;;;5029937;28;20049;-61
2022/08/14 07:31:08;;;;;;;4.80;4.40;;;27.20;44.80;;;;;;5034463;28;20503;-61
2022/08/14 07:33:39;;;;;;;4.72;3.90;;;27.10;44.80;;;;;;5034780;28;20021;-59
2022/08/14 07:36:08;;;;;;;5.25;4.72;;;27.20;44.90;;;;;;5022118;28;20034;-58
2022/08/14 07:38:34;;;;;;;4.43;4.03;;;27.20;44.90;;;;;;5022694;28;20080;-59
2022/08/14 07:41:01;;;;;;;4.63;4.22;;;27.20;45.00;;;;;;5023563;28;20040;-57
2022/08/14 07:43:27;;;;;;;4.50;4.10;;;27.20;45.00;;;;;;5025488;28;20055;-54
2022/08/14 07:45:53;;;;;;;4.68;4.25;;;27.20;45.10;;;;;;5021701;28;20042;-58
2022/08/14 07:48:19;;;;;;;5.43;4.93;;;27.20;45.10;;;;;;5027659;28;20069;-56
2022/08/14 07:50:45;;;;;;;6.30;4.38;;;27.20;45.20;;;;;;5021016;28;20135;-58
2022/08/14 07:53:14;;;;;;;5.10;4.22;;;27.20;45.20;;;;;;5018478;28;20173;-59
2022/08/14 07:55:41;;;;;;;6.28;4.38;;;27.20;45.30;;;;;;5026632;28;20026;-55
2022/08/14 07:58:07;;;;;;;6.18;4.65;;;27.20;45.30;;;;;;5018007;28;20034;-57
2022/08/14 08:00:33;;;;;;;5.00;4.50;;;27.20;45.40;;;;;;5025880;28;20026;-56
2022/08/14 08:03:02;;;;;;;4.65;4.20;;;27.20;45.40;;;;;;5027956;28;20058;-56
2022/08/14 08:05:29;;;;;;;5.05;4.15;;;27.20;45.40;;;;;;5027547;28;20045;-59
2022/08/14 08:07:54;;;;;;;7.75;6.00;;;27.30;45.40;;;;;;5030312;28;20036;-58
2022/08/14 08:10:31;;;;;;;13.75;10.38;;;27.30;45.50;;;;;;5026826;28;20433;-57
2022/08/14 08:13:06;;;;;;;7.35;6.15;;;27.30;46.10;;;;;;5029321;28;20468;-57
2022/08/14 08:15:37;;;;;;;6.57;5.38;;;27.40;46.10;;;;;;5028055;28;20049;-59
2022/08/14 08:18:05;;;;;;;8.75;5.43;;;27.30;45.80;;;;;;5029436;28;20026;-56
2022/08/14 08:20:34;;;;;;;7.70;5.88;;;27.30;45.70;;;;;;5028087;28;20424;-57
2022/08/14 08:23:01;;;;;;;8.80;6.05;;;27.40;45.70;;;;;;5024156;28;20338;-60
2022/08/14 08:25:31;;;;;;;7.00;5.70;;;27.40;45.70;;;;;;5029960;28;20128;-59
2022/08/14 08:28:01;;;;;;;7.65;5.45;;;27.40;45.60;;;;;;5030147;28;20124;-56
2022/08/14 08:30:29;;;;;;;5.97;4.97;;;27.40;45.60;;;;;;5029948;28;20170;-59
2022/08/14 08:32:56;;;;;;;8.98;5.72;;;27.40;45.60;;;;;;5027460;28;20053;-61
2022/08/14 08:35:28;;;;;;;10.07;5.63;;;27.40;45.90;;;;;;5025439;28;20095;-66
2022/08/14 08:38:03;;;;;;;5.60;4.45;;;27.50;45.70;;;;;;5023841;28;20041;-57
2022/08/14 08:40:38;;;;;;;9.10;4.70;;;27.50;45.10;;;;;;5047956;28;20472;-56
2022/08/14 08:43:15;;;;;;;6.10;4.30;;;27.50;44.80;;;;;;5021194;28;20037;-56
2022/08/14 08:45:41;;;;;;;6.95;4.85;;;27.50;44.60;;;;;;5029434;28;20638;-58
2022/08/14 08:48:10;;;;;;;6.85;5.30;;;27.50;44.80;;;;;;5026796;28;20034;-57
2022/08/14 08:50:38;;;;;;;7.50;5.07;;;27.50;44.90;;;;;;5029536;28;20079;-57
2022/08/14 08:53:07;;;;;;;6.93;5.78;;;27.50;45.00;;;;;;5028692;28;20387;-59
2022/08/14 08:55:38;;;;;;;7.75;5.30;;;27.50;45.00;;;;;;5025091;28;20040;-54
2022/08/14 08:58:09;;;;;;;9.15;5.15;;;27.50;45.00;;;;;;5029848;28;20100;-56
2022/08/14 09:00:37;;;;;;;5.60;4.90;;;27.50;45.10;;;;;;5030159;28;20025;-59
2022/08/14 09:03:13;;;;;;;9.93;7.07;;;27.50;45.40;;;;;;5022376;28;20025;-58
2022/08/14 09:05:53;;;;;;;17.23;10.48;;;27.50;45.90;;;;;;5044923;28;20103;-58
2022/08/14 09:08:24;;;;;;;22.88;12.35;;;27.30;45.80;;;;;;5028820;28;20029;-60
2022/08/14 09:10:51;;;;;;;24.35;13.23;;;27.00;46.50;;;;;;5027452;28;20449;-56
2022/08/14 09:13:18;;;;;;;21.55;13.20;;;26.60;47.10;;;;;;5028288;28;20147;-63
2022/08/14 09:15:50;;;;;;;46.15;18.20;;;26.30;47.20;;;;;;5027426;28;20056;-54
2022/08/14 09:18:18;;;;;;;45.28;20.85;;;25.90;47.50;;;;;;5028942;28;20348;-60
2022/08/14 09:20:46;;;;;;;39.97;18.80;;;25.50;48.70;;;;;;5025189;28;20120;-62
2022/08/14 09:23:13;;;;;;;37.50;19.23;;;25.20;49.80;;;;;;5025942;28;20034;-61
2022/08/14 09:25:43;;;;;;;40.47;22.73;;;25.00;50.10;;;;;;5027559;28;20034;-59
2022/08/14 09:28:10;;;;;;;47.17;23.02;;;24.70;50.00;;;;;;5026873;28;20135;-59
2022/08/14 09:30:40;;;;;;;39.80;19.92;;;24.40;51.10;;;;;;5022930;28;20029;-51
2022/08/14 09:33:21;;;;;;;30.80;15.80;;;24.10;50.70;;;;;;5022309;28;20025;-55
2022/08/14 09:36:01;;;;;;;23.00;11.77;;;23.90;49.30;;;;;;5032597;28;20030;-58
2022/08/14 09:38:36;;;;;;;19.23;12.18;;;23.60;48.70;;;;;;5016390;28;20592;-60
2022/08/14 09:41:23;;;;;;;14.20;8.77;;;23.40;49.90;;;;;;5029487;28;20026;-61
2022/08/14 09:43:52;;;;;;;13.63;7.45;;;23.30;53.40;;;;;;5028498;28;20352;-55
2022/08/14 09:46:18;;;;;;;25.05;12.80;;;23.20;55.70;;;;;;5027148;28;20052;-50
2022/08/14 09:48:45;;;;;;;28.40;14.13;;;23.20;58.40;;;;;;5025789;28;20037;-62
2022/08/14 09:51:24;;;;;;;30.10;17.23;;;23.30;60.50;;;;;;5024290;28;20056;-59
2022/08/14 09:54:08;;;;;;;23.33;13.30;;;23.40;60.90;;;;;;5030289;28;20029;-58
2022/08/14 09:56:48;;;;;;;18.92;11.00;;;23.40;59.20;;;;;;5035574;28;20048;-62
2022/08/14 09:59:21;;;;;;;15.48;9.88;;;23.40;57.20;;;;;;5033756;28;20087;-60
2022/08/14 10:01:47;;;;;;;13.68;9.13;;;23.40;56.20;;;;;;5022824;28;20322;-56
2022/08/14 10:04:23;;;;;;;10.77;7.60;;;23.40;55.40;;;;;;5028377;28;20464;-52
2022/08/14 10:06:50;;;;;;;9.68;6.80;;;23.50;55.20;;;;;;5025802;28;20052;-56
2022/08/14 10:09:17;;;;;;;9.05;6.05;;;23.60;54.80;;;;;;5029893;28;20426;-57
2022/08/14 10:11:56;;;;;;;7.05;5.28;;;23.70;54.30;;;;;;5028549;28;20021;-56
2022/08/14 10:14:24;;;;;;;7.53;5.20;;;24.00;53.90;;;;;;5025528;28;20037;-56
2022/08/14 10:16:55;;;;;;;8.73;5.65;;;24.20;53.50;;;;;;5028199;28;20056;-54
2022/08/14 10:19:27;;;;;;;6.60;4.85;;;24.40;53.10;;;;;;5023192;28;20051;-56
2022/08/14 10:22:00;;;;;;;7.10;4.85;;;24.60;52.70;;;;;;5027704;28;20029;-53
2022/08/14 10:24:32;;;;;;;5.53;4.43;;;24.70;52.30;;;;;;5026193;28;20120;-57
2022/08/14 10:27:01;;;;;;;5.57;4.40;;;24.90;52.00;;;;;;5027158;28;20045;-58
2022/08/14 10:29:39;;;;;;;5.15;4.20;;;25.00;51.70;;;;;;5027738;28;20034;-53
2022/08/14 10:32:12;;;;;;;5.10;4.10;;;25.20;51.50;;;;;;5027354;28;20025;-58
2022/08/14 10:34:39;;;;;;;5.45;4.25;;;25.30;51.30;;;;;;5028597;28;20052;-55
2022/08/14 10:37:15;;;;;;;5.60;4.22;;;25.40;51.10;;;;;;5028543;28;20051;-57
2022/08/14 10:39:45;;;;;;;5.90;4.50;;;25.50;50.80;;;;;;5028599;28;20026;-55
2022/08/14 10:42:13;;;;;;;4.32;3.92;;;25.60;50.60;;;;;;5026508;28;20052;-58
2022/08/14 10:44:49;;;;;;;4.18;3.78;;;25.60;50.40;;;;;;5028166;28;20421;-53
2022/08/14 10:47:17;;;;;;;4.28;3.88;;;25.80;50.30;;;;;;5025004;28;20107;-56
2022/08/14 10:49:57;;;;;;;6.18;4.63;;;25.80;50.10;;;;;;5025910;28;20441;-59
2022/08/14 10:52:25;;;;;;;4.85;3.63;;;25.90;49.90;;;;;;5026700;28;20040;-57
2022/08/14 10:54:52;;;;;;;6.00;4.28;;;26.00;49.70;;;;;;5024277;28;20037;-56
2022/08/14 10:57:26;;;;;;;4.28;3.88;;;26.10;49.50;;;;;;5024970;28;20040;-52
2022/08/14 10:59:52;;;;;;;4.80;3.65;;;26.10;49.20;;;;;;5027614;28;20036;-58
2022/08/14 11:02:30;;;;;;;4.30;3.78;;;26.20;49.10;;;;;;5026064;28;20025;-59
2022/08/14 11:04:57;;;;;;;4.97;4.00;;;26.20;48.90;;;;;;5025914;28;20045;-58
2022/08/14 11:07:23;;;;;;;4.60;3.65;;;26.30;48.80;;;;;;5028403;28;20055;-52
2022/08/14 11:10:02;;;;;;;4.22;3.72;;;26.30;48.60;;;;;;5025202;28;20025;-52
2022/08/14 11:12:48;;;;;;;5.53;3.53;;;26.30;48.30;;;;;;5022271;28;20464;-52
2022/08/14 11:15:26;;;;;;;4.80;3.30;;;26.40;48.20;;;;;;5027151;28;20025;-58
2022/08/14 11:17:53;;;;;;;4.05;3.50;;;26.50;48.10;;;;;;5026661;28;20041;-51
2022/08/14 11:20:22;;;;;;;3.90;3.25;;;26.50;48.00;;;;;;5023303;28;20080;-58
2022/08/14 11:22:51;;;;;;;4.15;3.58;;;26.50;47.90;;;;;;5027268;28;20124;-56
2022/08/14 11:25:19;;;;;;;3.55;3.25;;;26.50;47.70;;;;;;5024408;28;20090;-56
2022/08/14 11:27:54;;;;;;;3.50;3.20;;;26.60;47.70;;;;;;5025071;28;20053;-58
2022/08/14 11:30:23;;;;;;;4.28;3.60;;;26.60;47.50;;;;;;5020527;28;20349;-57
2022/08/14 11:32:50;;;;;;;4.22;3.58;;;26.60;47.40;;;;;;5021850;28;20095;-60
2022/08/14 11:35:21;;;;;;;4.85;3.60;;;26.60;47.20;;;;;;5028236;28;20026;-58
2022/08/14 11:38:01;;;;;;;4.93;3.53;;;26.60;47.10;;;;;;5030797;28;20030;-58
2022/08/14 11:40:29;;;;;;;3.83;3.30;;;26.60;46.90;;;;;;5025564;28;20037;-53
2022/08/14 11:42:56;;;;;;;3.97;3.25;;;26.60;46.60;;;;;;5030451;28;20025;-59
2022/08/14 11:45:33;;;;;;;3.47;3.08;;;26.60;46.40;;;;;;5026440;28;20048;-57
2022/08/14 11:48:13;;;;;;;3.30;3.00;;;26.60;46.10;;;;;;5029733;28;20440;-54
2022/08/14 11:50:39;;;;;;;4.07;3.53;;;26.60;45.80;;;;;;5028749;28;20121;-54
2022/08/14 11:53:06;;;;;;;3.83;3.30;;;26.50;45.40;;;;;;5028877;28;20805;-56
2022/08/14 11:55:35;;;;;;;3.78;3.25;;;26.50;45.00;;;;;;5030179;28;20068;-54
2022/08/14 11:58:08;;;;;;;4.00;3.38;;;26.50;44.60;;;;;;5028536;28;20108;-56
2022/08/14 12:00:49;;;;;;;3.67;3.27;;;26.50;44.20;;;;;;5029170;28;20175;-54
2022/08/14 12:03:15;;;;;;;4.10;3.42;;;26.50;43.80;;;;;;5026903;28;20026;-56
2022/08/14 12:05:41;;;;;;;3.28;2.92;;;26.50;43.50;;;;;;5026054;28;20465;-55
2022/08/14 12:08:09;;;;;;;4.13;3.20;;;26.50;43.10;;;;;;5028217;28;20033;-59
2022/08/14 12:10:41;;;;;;;3.78;2.97;;;26.50;42.80;;;;;;5026280;28;20464;-59
2022/08/14 12:13:10;;;;;;;4.32;3.22;;;26.50;42.80;;;;;;5028527;28;20036;-58
2022/08/14 12:15:37;;;;;;;3.75;2.90;;;26.50;42.90;;;;;;5027235;28;20420;-57
2022/08/14 12:18:03;;;;;;;3.88;3.05;;;26.50;43.00;;;;;;5027148;28;20022;-59
2022/08/14 12:20:38;;;;;;;2.78;2.55;;;26.50;43.00;;;;;;5028478;28;20037;-55
2022/08/14 12:23:06;;;;;;;2.80;2.60;;;26.60;43.20;;;;;;5027992;28;20076;-54
2022/08/14 12:25:33;;;;;;;3.88;3.17;;;26.60;43.30;;;;;;5028228;28;20068;-58
2022/08/14 12:28:04;;;;;;;3.40;2.95;;;26.60;43.30;;;;;;5026510;28;20716;-54
2022/08/14 12:30:43;;;;;;;3.65;3.10;;;26.60;43.30;;;;;;5026875;28;20045;-56
2022/08/14 12:33:28;;;;;;;3.10;2.80;;;26.70;43.40;;;;;;5028734;28;20033;-55
2022/08/14 12:35:56;;;;;;;2.72;2.53;;;26.70;43.50;;;;;;5030024;28;20043;-57
2022/08/14 12:38:37;;;;;;;3.28;2.80;;;26.80;43.60;;;;;;5030506;28;20029;-53
2022/08/14 12:41:13;;;;;;;3.20;2.90;;;26.80;43.50;;;;;;5027216;28;20369;-56
2022/08/14 12:44:00;;;;;;;3.00;2.70;;;26.80;43.60;;;;;;5030221;28;20033;-58
2022/08/14 12:46:32;;;;;;;3.10;2.58;;;26.80;43.50;;;;;;5027358;28;20514;-56
2022/08/14 12:49:09;;;;;;;4.10;2.90;;;26.80;43.50;;;;;;5029166;28;20092;-56
2022/08/14 12:51:35;;;;;;;3.35;3.03;;;26.80;43.50;;;;;;5032512;28;20041;-55
2022/08/14 12:54:12;;;;;;;2.70;2.50;;;26.90;43.60;;;;;;5029793;28;20040;-57
2022/08/14 12:56:38;;;;;;;3.33;2.95;;;26.90;43.60;;;;;;5029523;28;20037;-57
2022/08/14 12:59:04;;;;;;;3.38;3.08;;;26.90;43.50;;;;;;5029816;28;20040;-54
2022/08/14 13:01:32;;;;;;;3.85;3.35;;;26.90;43.50;;;;;;5024154;28;20033;-60
2022/08/14 13:04:06;;;;;;;2.90;2.65;;;26.90;43.50;;;;;;5028476;28;20445;-56
2022/08/14 13:06:35;;;;;;;2.80;2.60;;;27.00;43.60;;;;;;5029543;28;20041;-59
2022/08/14 13:09:03;;;;;;;2.83;2.53;;;27.00;43.60;;;;;;5020883;28;20079;-61